Crawford, NE (69339)

2:15 PM MDT on July 26, 2014 (GMT -0600)
Chadron Municipal (KCDR) Elev 3297 ft | 42.84 °N, 103.10 °W | Change Station

Current weather conditions updated 22 minutes ago

Clear
Clear
86 °F
Feels Like 86 °F
N
13
Wind Variable Wind from NNE
Gusts 18 mph

Today is forecast to be Cooler than yesterday.

Today
High -- | Low -- °F
--% Chance of Precip.
Yesterday
High -- | Low -- °F
Precip. -- in
5:39 AM 8:20 PM
Waning Crescent, 0% visible
Pressure 29.98 in
Visibility 10.0 miles
Clouds Clear
Dew Point 42 °F
Humidity 21%
Rainfall 0.00 in
Snow Depth Not available.
UV 11 out of 12
Pollen 7.50 out of 12
Air Quality Not available.
Flu Activity Not available.
METAR KCDR 261953Z AUTO 02011G16KT 10SM CLR 30/06 A3007 RMK AO2 SLP152 T03000056

More Conditions Fewer Conditions

Pressure 29.98 in
Visibility 10.0 miles
Clouds Clear
Dew Point 42 °F
Humidity 21%
Rainfall 0.00 in
Snow Depth Not available.
UV 11 out of 12
Pollen 7.50 out of 12
Air Quality Not available.
Flu Activity Not available.
METAR KCDR 261953Z AUTO 02011G16KT 10SM CLR 30/06 A3007 RMK AO2 SLP152 T03000056

More Conditions Fewer Conditions

10-Day Weather Forecast

Almanac

Astronomy

Jul. 26, 2014 Rise Set
Actual Time 5:39 AM MDT 8:20 PM MDT
Civil Twilight 5:06 AM MDT 8:52 PM MDT
Nautical Twilight 4:25 AM MDT 9:33 PM MDT
Astronomical Twilight 3:38 AM MDT 10:20 PM MDT
Moon 5:35 AM MDT 7:54 PM MDT
Length of Visible Light 15h 46m
Length of Day
14h 40m
Tomorrow will be 2m 1s shorter.
Waning Crescent, 0% of the Moon is Illuminated
Today
Waning Crescent
Jul 26
New
Aug 3
First Quarter
Aug 10
Full
Aug 17
Last Quarter

Today's Extremes

State Highs State Lows

Community

WunderPhotos

Upload Photos

1,737,693 photos uploaded!

Nearby

Snow Depth

Station Depth Elevation
No new snow has been reported.

Earthquake Activity

City Distance Mag. Time & Date
No recent earthquake activity has been reported nearby.
Minimum magnitude displayed is 2.5.

Coastal Water Temperatures

Place Temperature
No Stations Reporting

Nearby Weather Stations

Station Location Temp. Heat Index Dew Point Humidity Wind Precip. Elev Updated Type
RAWS KINGS CANYON NE, Chadron, NE 80 °F 79 °F 45 °F 29% North  at  9 mph 0.00 in / hr 4080 ft 1:22 PM MDT MADIS
Bill and Corena's Backyard, Chadron, NE 84.0 °F 82 °F 46 °F 27% NE  at  0.0 mph 0.00 in / hr 3367 ft 2:13 PM MDT Rapid Fire
KCSR/KBPY Radio, Chadron, NE 83.2 °F 81 °F 45 °F 26% NE  at  4.0 mph 0.00 in / hr 3386 ft 2:00 PM MDT Normal

Show More Stations Show Fewer Stations